sensor_id;sensor_type;location;lat;lon;timestamp;temperature;humidity
20911;DHT22;10615;42.702;23.314;2023-03-31T00:00:29;11.70;59.90
20911;DHT22;10615;42.702;23.314;2023-03-31T00:01:30;11.70;60.00
20911;DHT22;10615;42.702;23.314;2023-03-31T00:02:37;11.70;60.10
20911;DHT22;10615;42.702;23.314;2023-03-31T00:03:40;11.70;60.20
20911;DHT22;10615;42.702;23.314;2023-03-31T00:04:43;11.70;60.20
20911;DHT22;10615;42.702;23.314;2023-03-31T00:05:59;11.70;60.30
20911;DHT22;10615;42.702;23.314;2023-03-31T00:07:00;11.70;60.40
20911;DHT22;10615;42.702;23.314;2023-03-31T00:08:00;11.70;60.40
20911;DHT22;10615;42.702;23.314;2023-03-31T00:09:01;11.60;60.60
20911;DHT22;10615;42.702;23.314;2023-03-31T00:10:02;11.60;60.70
20911;DHT22;10615;42.702;23.314;2023-03-31T00:11:04;11.60;60.70
20911;DHT22;10615;42.702;23.314;2023-03-31T00:12:06;11.60;60.90
20911;DHT22;10615;42.702;23.314;2023-03-31T00:13:07;11.60;61.00
20911;DHT22;10615;42.702;23.314;2023-03-31T00:14:08;11.60;61.00
20911;DHT22;10615;42.702;23.314;2023-03-31T00:15:09;11.70;60.90
20911;DHT22;10615;42.702;23.314;2023-03-31T00:16:09;11.60;60.70
20911;DHT22;10615;42.702;23.314;2023-03-31T00:17:10;11.60;60.70
20911;DHT22;10615;42.702;23.314;2023-03-31T00:18:11;11.60;60.70
20911;DHT22;10615;42.702;23.314;2023-03-31T00:19:13;11.60;60.70
20911;DHT22;10615;42.702;23.314;2023-03-31T00:20:20;11.60;60.70
20911;DHT22;10615;42.702;23.314;2023-03-31T00:21:23;11.50;60.80
20911;DHT22;10615;42.702;23.314;2023-03-31T00:22:24;11.50;61.00
20911;DHT22;10615;42.702;23.314;2023-03-31T00:23:26;11.50;61.10
20911;DHT22;10615;42.702;23.314;2023-03-31T00:24:30;11.40;62.00
20911;DHT22;10615;42.702;23.314;2023-03-31T00:25:32;11.40;61.30
20911;DHT22;10615;42.702;23.314;2023-03-31T00:26:33;11.40;61.40
20911;DHT22;10615;42.702;23.314;2023-03-31T00:27:35;11.40;61.40
20911;DHT22;10615;42.702;23.314;2023-03-31T00:28:35;11.40;61.50
20911;DHT22;10615;42.702;23.314;2023-03-31T00:29:36;11.40;61.60
20911;DHT22;10615;42.702;23.314;2023-03-31T00:30:41;11.40;61.70
20911;DHT22;10615;42.702;23.314;2023-03-31T00:31:41;11.40;61.70
20911;DHT22;10615;42.702;23.314;2023-03-31T00:32:42;11.30;61.80
20911;DHT22;10615;42.702;23.314;2023-03-31T00:33:42;11.20;61.90
20911;DHT22;10615;42.702;23.314;2023-03-31T00:34:44;11.30;62.10
20911;DHT22;10615;42.702;23.314;2023-03-31T00:35:50;11.20;62.20
20911;DHT22;10615;42.702;23.314;2023-03-31T00:36:51;11.20;62.30
20911;DHT22;10615;42.702;23.314;2023-03-31T00:37:55;11.20;62.40
20911;DHT22;10615;42.702;23.314;2023-03-31T00:39:05;11.30;62.50
20911;DHT22;10615;42.702;23.314;2023-03-31T00:40:09;11.30;62.30
20911;DHT22;10615;42.702;23.314;2023-03-31T00:41:10;11.30;62.30
20911;DHT22;10615;42.702;23.314;2023-03-31T00:42:11;11.30;62.30
20911;DHT22;10615;42.702;23.314;2023-03-31T00:43:35;11.40;62.40
20911;DHT22;10615;42.702;23.314;2023-03-31T00:45:16;11.40;62.30
20911;DHT22;10615;42.702;23.314;2023-03-31T00:47:15;11.50;62.40
20911;DHT22;10615;42.702;23.314;2023-03-31T00:48:18;11.50;62.40
20911;DHT22;10615;42.702;23.314;2023-03-31T00:50:54;11.50;62.30
20911;DHT22;10615;42.702;23.314;2023-03-31T00:52:21;11.60;62.20
20911;DHT22;10615;42.702;23.314;2023-03-31T00:53:28;11.60;62.10
20911;DHT22;10615;42.702;23.314;2023-03-31T00:54:31;11.60;62.20
20911;DHT22;10615;42.702;23.314;2023-03-31T00:55:37;11.60;62.20
20911;DHT22;10615;42.702;23.314;2023-03-31T00:56:41;11.60;62.10
20911;DHT22;10615;42.702;23.314;2023-03-31T00:57:45;11.60;62.10
20911;DHT22;10615;42.702;23.314;2023-03-31T00:58:47;11.60;62.10
20911;DHT22;10615;42.702;23.314;2023-03-31T00:59:52;11.60;62.10
20911;DHT22;10615;42.702;23.314;2023-03-31T01:00:57;11.60;62.10
20911;DHT22;10615;42.702;23.314;2023-03-31T01:01:58;11.60;62.10
20911;DHT22;10615;42.702;23.314;2023-03-31T01:03:05;11.70;62.20
20911;DHT22;10615;42.702;23.314;2023-03-31T01:04:07;11.70;62.20
20911;DHT22;10615;42.702;23.314;2023-03-31T01:05:09;11.70;62.20
20911;DHT22;10615;42.702;23.314;2023-03-31T01:06:10;11.70;62.20
20911;DHT22;10615;42.702;23.314;2023-03-31T01:07:24;11.70;62.10
20911;DHT22;10615;42.702;23.314;2023-03-31T01:08:26;11.70;62.00
20911;DHT22;10615;42.702;23.314;2023-03-31T01:09:31;11.70;61.90
20911;DHT22;10615;42.702;23.314;2023-03-31T01:10:39;11.60;62.00
20911;DHT22;10615;42.702;23.314;2023-03-31T01:11:42;11.60;62.00
20911;DHT22;10615;42.702;23.314;2023-03-31T01:12:46;11.60;62.20
20911;DHT22;10615;42.702;23.314;2023-03-31T01:13:50;11.60;62.20
20911;DHT22;10615;42.702;23.314;2023-03-31T01:14:51;11.70;62.40
20911;DHT22;10615;42.702;23.314;2023-03-31T01:15:53;11.70;62.30
20911;DHT22;10615;42.702;23.314;2023-03-31T01:16:54;11.70;62.40
20911;DHT22;10615;42.702;23.314;2023-03-31T01:17:54;11.60;62.40
20911;DHT22;10615;42.702;23.314;2023-03-31T01:18:56;11.70;62.50
20911;DHT22;10615;42.702;23.314;2023-03-31T01:28:49;11.70;62.40
20911;DHT22;10615;42.702;23.314;2023-03-31T01:30:31;11.70;62.30
20911;DHT22;10615;42.702;23.314;2023-03-31T01:34:27;11.70;62.10
20911;DHT22;10615;42.702;23.314;2023-03-31T01:43:45;11.70;62.40
20911;DHT22;10615;42.702;23.314;2023-03-31T01:45:30;11.70;62.40
20911;DHT22;10615;42.702;23.314;2023-03-31T01:48:20;11.60;62.10
20911;DHT22;10615;42.702;23.314;2023-03-31T01:49:45;11.60;62.10
20911;DHT22;10615;42.702;23.314;2023-03-31T01:50:58;11.60;61.90
20911;DHT22;10615;42.702;23.314;2023-03-31T01:52:17;11.60;62.00
20911;DHT22;10615;42.702;23.314;2023-03-31T01:54:48;11.50;62.00
20911;DHT22;10615;42.702;23.314;2023-03-31T01:57:38;11.50;62.00
20911;DHT22;10615;42.702;23.314;2023-03-31T02:00:04;11.60;62.00
20911;DHT22;10615;42.702;23.314;2023-03-31T02:01:23;11.60;61.90
20911;DHT22;10615;42.702;23.314;2023-03-31T02:02:35;11.60;61.80
20911;DHT22;10615;42.702;23.314;2023-03-31T02:03:45;11.50;61.70
20911;DHT22;10615;42.702;23.314;2023-03-31T02:04:56;11.50;61.70
20911;DHT22;10615;42.702;23.314;2023-03-31T02:06:02;11.60;61.70
20911;DHT22;10615;42.702;23.314;2023-03-31T02:07:14;11.60;61.70
20911;DHT22;10615;42.702;23.314;2023-03-31T02:08:21;11.60;61.60
20911;DHT22;10615;42.702;23.314;2023-03-31T02:09:28;11.60;61.60
20911;DHT22;10615;42.702;23.314;2023-03-31T02:10:30;11.60;61.70
20911;DHT22;10615;42.702;23.314;2023-03-31T02:11:32;11.60;61.70
20911;DHT22;10615;42.702;23.314;2023-03-31T02:12:34;11.60;61.80
20911;DHT22;10615;42.702;23.314;2023-03-31T02:13:38;11.60;61.70
20911;DHT22;10615;42.702;23.314;2023-03-31T02:14:43;11.60;61.70
20911;DHT22;10615;42.702;23.314;2023-03-31T02:15:51;11.60;61.60
20911;DHT22;10615;42.702;23.314;2023-03-31T02:16:57;11.60;61.50
20911;DHT22;10615;42.702;23.314;2023-03-31T02:18:01;11.60;61.50
20911;DHT22;10615;42.702;23.314;2023-03-31T02:19:03;11.60;61.60
20911;DHT22;10615;42.702;23.314;2023-03-31T02:20:08;11.60;61.70
20911;DHT22;10615;42.702;23.314;2023-03-31T02:21:11;11.60;61.70
20911;DHT22;10615;42.702;23.314;2023-03-31T02:22:15;11.60;61.80
20911;DHT22;10615;42.702;23.314;2023-03-31T02:23:22;11.60;61.90
20911;DHT22;10615;42.702;23.314;2023-03-31T02:24:27;11.60;62.00
20911;DHT22;10615;42.702;23.314;2023-03-31T02:25:37;11.60;62.10
20911;DHT22;10615;42.702;23.314;2023-03-31T02:26:54;11.70;62.40
20911;DHT22;10615;42.702;23.314;2023-03-31T02:27:59;11.60;62.40
20911;DHT22;10615;42.702;23.314;2023-03-31T02:29:01;11.60;62.70
20911;DHT22;10615;42.702;23.314;2023-03-31T02:30:02;11.60;63.00
20911;DHT22;10615;42.702;23.314;2023-03-31T02:32:31;11.60;63.60
20911;DHT22;10615;42.702;23.314;2023-03-31T02:33:34;11.60;63.90
20911;DHT22;10615;42.702;23.314;2023-03-31T02:34:35;11.40;64.00
20911;DHT22;10615;42.702;23.314;2023-03-31T02:35:36;11.50;64.40
20911;DHT22;10615;42.702;23.314;2023-03-31T02:36:37;11.50;64.90
20911;DHT22;10615;42.702;23.314;2023-03-31T02:37:38;11.50;65.30
20911;DHT22;10615;42.702;23.314;2023-03-31T02:38:58;11.60;65.80
20911;DHT22;10615;42.702;23.314;2023-03-31T02:40:05;11.60;66.20
20911;DHT22;10615;42.702;23.314;2023-03-31T02:41:09;11.60;66.60
20911;DHT22;10615;42.702;23.314;2023-03-31T02:42:10;11.60;66.70
20911;DHT22;10615;42.702;23.314;2023-03-31T02:43:11;11.50;66.60
20911;DHT22;10615;42.702;23.314;2023-03-31T02:44:13;11.50;66.40
20911;DHT22;10615;42.702;23.314;2023-03-31T02:45:41;11.50;66.30
20911;DHT22;10615;42.702;23.314;2023-03-31T02:46:42;11.50;66.70
20911;DHT22;10615;42.702;23.314;2023-03-31T02:47:43;11.50;66.90
20911;DHT22;10615;42.702;23.314;2023-03-31T02:48:50;11.40;67.10
20911;DHT22;10615;42.702;23.314;2023-03-31T03:03:41;11.40;71.60
20911;DHT22;10615;42.702;23.314;2023-03-31T03:10:09;11.40;72.60
20911;DHT22;10615;42.702;23.314;2023-03-31T03:13:46;11.40;73.00
20911;DHT22;10615;42.702;23.314;2023-03-31T03:17:28;11.40;73.50
20911;DHT22;10615;42.702;23.314;2023-03-31T03:18:30;11.50;73.70
20911;DHT22;10615;42.702;23.314;2023-03-31T03:19:31;11.50;73.70
20911;DHT22;10615;42.702;23.314;2023-03-31T03:20:32;11.40;73.60
20911;DHT22;10615;42.702;23.314;2023-03-31T03:21:33;11.40;73.30
20911;DHT22;10615;42.702;23.314;2023-03-31T03:22:35;11.40;73.30
20911;DHT22;10615;42.702;23.314;2023-03-31T03:23:36;11.50;73.30
20911;DHT22;10615;42.702;23.314;2023-03-31T03:24:37;11.40;73.50
20911;DHT22;10615;42.702;23.314;2023-03-31T03:25:39;11.40;73.80
20911;DHT22;10615;42.702;23.314;2023-03-31T03:26:39;11.50;74.20
20911;DHT22;10615;42.702;23.314;2023-03-31T03:27:40;11.50;75.40
20911;DHT22;10615;42.702;23.314;2023-03-31T03:28:41;11.50;74.70
20911;DHT22;10615;42.702;23.314;2023-03-31T03:29:41;11.50;75.00
20911;DHT22;10615;42.702;23.314;2023-03-31T03:30:42;11.50;75.30
20911;DHT22;10615;42.702;23.314;2023-03-31T03:31:43;11.50;75.70
20911;DHT22;10615;42.702;23.314;2023-03-31T03:32:43;11.50;76.00
20911;DHT22;10615;42.702;23.314;2023-03-31T03:33:44;11.50;76.20
20911;DHT22;10615;42.702;23.314;2023-03-31T03:34:45;11.50;77.30
20911;DHT22;10615;42.702;23.314;2023-03-31T03:35:46;11.50;76.50
20911;DHT22;10615;42.702;23.314;2023-03-31T03:36:48;11.50;76.50
20911;DHT22;10615;42.702;23.314;2023-03-31T03:37:48;11.50;76.60
20911;DHT22;10615;42.702;23.314;2023-03-31T03:38:49;11.50;76.50
20911;DHT22;10615;42.702;23.314;2023-03-31T03:39:50;11.50;76.50
20911;DHT22;10615;42.702;23.314;2023-03-31T03:40:53;11.50;76.40
20911;DHT22;10615;42.702;23.314;2023-03-31T03:41:54;11.50;76.20
20911;DHT22;10615;42.702;23.314;2023-03-31T03:42:55;11.60;76.30
20911;DHT22;10615;42.702;23.314;2023-03-31T03:43:55;11.60;76.30
20911;DHT22;10615;42.702;23.314;2023-03-31T03:44:56;11.60;76.30
20911;DHT22;10615;42.702;23.314;2023-03-31T03:45:57;11.60;76.30
20911;DHT22;10615;42.702;23.314;2023-03-31T03:46:57;11.60;76.50
20911;DHT22;10615;42.702;23.314;2023-03-31T03:47:58;11.60;76.60
20911;DHT22;10615;42.702;23.314;2023-03-31T03:48:59;11.60;76.60
20911;DHT22;10615;42.702;23.314;2023-03-31T03:49:59;11.60;76.80
20911;DHT22;10615;42.702;23.314;2023-03-31T03:51:00;11.60;76.80
20911;DHT22;10615;42.702;23.314;2023-03-31T03:52:01;11.60;76.60
20911;DHT22;10615;42.702;23.314;2023-03-31T03:53:02;11.60;76.40
20911;DHT22;10615;42.702;23.314;2023-03-31T03:54:02;11.60;76.10
20911;DHT22;10615;42.702;23.314;2023-03-31T03:55:03;11.60;75.90
20911;DHT22;10615;42.702;23.314;2023-03-31T03:56:05;11.60;75.70
20911;DHT22;10615;42.702;23.314;2023-03-31T03:57:05;11.60;75.40
20911;DHT22;10615;42.702;23.314;2023-03-31T03:58:06;11.60;75.20
20911;DHT22;10615;42.702;23.314;2023-03-31T03:59:07;11.60;74.80
20911;DHT22;10615;42.702;23.314;2023-03-31T04:00:08;11.60;74.60
20911;DHT22;10615;42.702;23.314;2023-03-31T04:01:12;11.60;74.50
20911;DHT22;10615;42.702;23.314;2023-03-31T04:02:13;11.50;74.40
20911;DHT22;10615;42.702;23.314;2023-03-31T04:03:14;11.60;74.60
20911;DHT22;10615;42.702;23.314;2023-03-31T04:04:15;11.60;74.80
20911;DHT22;10615;42.702;23.314;2023-03-31T04:05:16;11.60;74.80
20911;DHT22;10615;42.702;23.314;2023-03-31T04:06:17;11.60;74.90
20911;DHT22;10615;42.702;23.314;2023-03-31T04:07:17;11.60;75.10
20911;DHT22;10615;42.702;23.314;2023-03-31T04:08:18;11.60;75.40
20911;DHT22;10615;42.702;23.314;2023-03-31T04:09:19;11.60;75.70
20911;DHT22;10615;42.702;23.314;2023-03-31T04:10:20;11.60;75.80
20911;DHT22;10615;42.702;23.314;2023-03-31T04:11:21;11.60;76.00
20911;DHT22;10615;42.702;23.314;2023-03-31T04:12:21;11.60;75.90
20911;DHT22;10615;42.702;23.314;2023-03-31T04:13:22;11.60;75.80
20911;DHT22;10615;42.702;23.314;2023-03-31T04:14:23;11.60;75.70
20911;DHT22;10615;42.702;23.314;2023-03-31T04:15:25;11.60;75.70
20911;DHT22;10615;42.702;23.314;2023-03-31T04:16:26;11.60;75.50
20911;DHT22;10615;42.702;23.314;2023-03-31T04:17:27;11.60;75.30
20911;DHT22;10615;42.702;23.314;2023-03-31T04:18:34;11.60;75.10
20911;DHT22;10615;42.702;23.314;2023-03-31T04:19:36;11.50;74.90
20911;DHT22;10615;42.702;23.314;2023-03-31T04:20:37;11.50;74.80
20911;DHT22;10615;42.702;23.314;2023-03-31T04:21:38;11.50;74.70
20911;DHT22;10615;42.702;23.314;2023-03-31T04:22:44;11.40;74.70
20911;DHT22;10615;42.702;23.314;2023-03-31T04:23:46;11.40;74.80
20911;DHT22;10615;42.702;23.314;2023-03-31T04:24:47;11.50;75.00
20911;DHT22;10615;42.702;23.314;2023-03-31T04:25:52;11.50;75.00
20911;DHT22;10615;42.702;23.314;2023-03-31T04:26:52;11.40;75.00
20911;DHT22;10615;42.702;23.314;2023-03-31T04:27:54;11.50;75.00
20911;DHT22;10615;42.702;23.314;2023-03-31T04:28:55;11.50;75.00
20911;DHT22;10615;42.702;23.314;2023-03-31T04:29:57;11.50;75.00
20911;DHT22;10615;42.702;23.314;2023-03-31T04:30:58;11.50;74.90
20911;DHT22;10615;42.702;23.314;2023-03-31T04:31:59;11.50;74.80
20911;DHT22;10615;42.702;23.314;2023-03-31T04:33:01;11.50;74.90
20911;DHT22;10615;42.702;23.314;2023-03-31T04:34:04;11.50;74.80
20911;DHT22;10615;42.702;23.314;2023-03-31T04:35:06;11.50;74.80
20911;DHT22;10615;42.702;23.314;2023-03-31T04:36:07;11.60;74.90
20911;DHT22;10615;42.702;23.314;2023-03-31T04:37:17;11.60;75.00
20911;DHT22;10615;42.702;23.314;2023-03-31T04:38:22;11.50;75.10
20911;DHT22;10615;42.702;23.314;2023-03-31T04:39:23;11.60;75.20
20911;DHT22;10615;42.702;23.314;2023-03-31T04:40:30;11.60;75.40
20911;DHT22;10615;42.702;23.314;2023-03-31T04:41:30;11.50;75.50
20911;DHT22;10615;42.702;23.314;2023-03-31T04:42:31;11.60;75.60
20911;DHT22;10615;42.702;23.314;2023-03-31T04:43:31;11.50;75.50
20911;DHT22;10615;42.702;23.314;2023-03-31T04:44:32;11.60;75.40
20911;DHT22;10615;42.702;23.314;2023-03-31T04:45:33;11.60;75.40
20911;DHT22;10615;42.702;23.314;2023-03-31T04:46:34;11.60;75.40
20911;DHT22;10615;42.702;23.314;2023-03-31T04:47:35;11.60;75.40
20911;DHT22;10615;42.702;23.314;2023-03-31T04:48:36;11.60;75.30
20911;DHT22;10615;42.702;23.314;2023-03-31T04:49:37;11.60;75.30
20911;DHT22;10615;42.702;23.314;2023-03-31T04:50:39;11.60;75.40
20911;DHT22;10615;42.702;23.314;2023-03-31T04:51:40;11.60;75.50
20911;DHT22;10615;42.702;23.314;2023-03-31T04:52:40;11.60;75.70
20911;DHT22;10615;42.702;23.314;2023-03-31T04:53:41;11.70;75.80
20911;DHT22;10615;42.702;23.314;2023-03-31T04:54:42;11.70;75.90
20911;DHT22;10615;42.702;23.314;2023-03-31T04:55:42;11.70;76.00
20911;DHT22;10615;42.702;23.314;2023-03-31T04:56:44;11.70;75.90
20911;DHT22;10615;42.702;23.314;2023-03-31T04:57:44;11.80;76.00
20911;DHT22;10615;42.702;23.314;2023-03-31T04:58:45;11.80;75.90
20911;DHT22;10615;42.702;23.314;2023-03-31T04:59:45;11.80;75.70
20911;DHT22;10615;42.702;23.314;2023-03-31T05:00:46;11.70;75.50
20911;DHT22;10615;42.702;23.314;2023-03-31T05:01:47;11.70;75.40
20911;DHT22;10615;42.702;23.314;2023-03-31T05:02:48;11.70;75.30
20911;DHT22;10615;42.702;23.314;2023-03-31T05:03:49;11.70;76.10
20911;DHT22;10615;42.702;23.314;2023-03-31T05:04:49;11.80;75.40
20911;DHT22;10615;42.702;23.314;2023-03-31T05:05:51;11.80;75.50
20911;DHT22;10615;42.702;23.314;2023-03-31T05:06:51;11.80;75.50
20911;DHT22;10615;42.702;23.314;2023-03-31T05:07:52;11.80;75.60
20911;DHT22;10615;42.702;23.314;2023-03-31T05:08:53;11.80;75.60
20911;DHT22;10615;42.702;23.314;2023-03-31T05:09:53;11.90;75.60
20911;DHT22;10615;42.702;23.314;2023-03-31T05:10:54;11.90;75.40
20911;DHT22;10615;42.702;23.314;2023-03-31T05:11:56;11.90;75.20
20911;DHT22;10615;42.702;23.314;2023-03-31T05:12:56;11.90;75.00
20911;DHT22;10615;42.702;23.314;2023-03-31T05:13:57;11.90;74.80
20911;DHT22;10615;42.702;23.314;2023-03-31T05:14:58;11.80;74.70
20911;DHT22;10615;42.702;23.314;2023-03-31T05:16:08;11.80;74.60
20911;DHT22;10615;42.702;23.314;2023-03-31T05:17:10;11.80;74.60
20911;DHT22;10615;42.702;23.314;2023-03-31T05:18:11;11.80;74.70
20911;DHT22;10615;42.702;23.314;2023-03-31T05:19:11;11.80;74.80
20911;DHT22;10615;42.702;23.314;2023-03-31T05:20:12;11.80;75.70
20911;DHT22;10615;42.702;23.314;2023-03-31T05:21:16;11.80;75.00
20911;DHT22;10615;42.702;23.314;2023-03-31T05:22:17;11.80;75.00
20911;DHT22;10615;42.702;23.314;2023-03-31T05:23:20;11.80;75.20
20911;DHT22;10615;42.702;23.314;2023-03-31T05:24:20;11.70;75.20
20911;DHT22;10615;42.702;23.314;2023-03-31T05:25:21;11.80;75.30
20911;DHT22;10615;42.702;23.314;2023-03-31T05:26:23;11.80;75.40
20911;DHT22;10615;42.702;23.314;2023-03-31T05:27:24;11.80;75.30
20911;DHT22;10615;42.702;23.314;2023-03-31T05:28:25;11.80;76.20
20911;DHT22;10615;42.702;23.314;2023-03-31T05:29:26;11.90;75.30
20911;DHT22;10615;42.702;23.314;2023-03-31T05:30:27;11.90;75.30
20911;DHT22;10615;42.702;23.314;2023-03-31T05:31:28;11.90;75.30
20911;DHT22;10615;42.702;23.314;2023-03-31T05:32:29;11.90;75.30
20911;DHT22;10615;42.702;23.314;2023-03-31T05:33:30;11.90;75.30
20911;DHT22;10615;42.702;23.314;2023-03-31T05:34:31;11.90;75.20
20911;DHT22;10615;42.702;23.314;2023-03-31T05:35:31;11.90;75.10
20911;DHT22;10615;42.702;23.314;2023-03-31T05:36:32;11.90;75.20
20911;DHT22;10615;42.702;23.314;2023-03-31T05:37:33;11.80;75.30
20911;DHT22;10615;42.702;23.314;2023-03-31T05:38:33;11.70;75.50
20911;DHT22;10615;42.702;23.314;2023-03-31T05:39:35;11.70;75.80
20911;DHT22;10615;42.702;23.314;2023-03-31T05:40:35;11.70;76.10
20911;DHT22;10615;42.702;23.314;2023-03-31T05:41:36;11.70;76.20
20911;DHT22;10615;42.702;23.314;2023-03-31T05:42:37;11.70;76.30
20911;DHT22;10615;42.702;23.314;2023-03-31T05:43:38;11.70;76.40
20911;DHT22;10615;42.702;23.314;2023-03-31T05:44:39;11.70;76.50
20911;DHT22;10615;42.702;23.314;2023-03-31T05:45:39;11.70;76.60
20911;DHT22;10615;42.702;23.314;2023-03-31T05:46:40;11.70;76.70
20911;DHT22;10615;42.702;23.314;2023-03-31T05:47:42;11.80;76.80
20911;DHT22;10615;42.702;23.314;2023-03-31T05:48:43;11.80;76.80
20911;DHT22;10615;42.702;23.314;2023-03-31T05:49:44;11.90;76.90
20911;DHT22;10615;42.702;23.314;2023-03-31T05:50:45;11.90;77.00
20911;DHT22;10615;42.702;23.314;2023-03-31T05:51:46;12.00;77.10
20911;DHT22;10615;42.702;23.314;2023-03-31T05:52:47;12.00;77.00
20911;DHT22;10615;42.702;23.314;2023-03-31T05:53:47;12.00;77.00
20911;DHT22;10615;42.702;23.314;2023-03-31T05:54:48;12.10;77.10
20911;DHT22;10615;42.702;23.314;2023-03-31T05:55:49;12.20;77.00
20911;DHT22;10615;42.702;23.314;2023-03-31T05:56:50;12.20;76.90
20911;DHT22;10615;42.702;23.314;2023-03-31T05:57:50;12.30;76.70
20911;DHT22;10615;42.702;23.314;2023-03-31T05:58:51;12.30;76.30
20911;DHT22;10615;42.702;23.314;2023-03-31T05:59:52;12.30;76.10
20911;DHT22;10615;42.702;23.314;2023-03-31T06:01:07;12.30;76.00
20911;DHT22;10615;42.702;23.314;2023-03-31T06:02:12;12.30;76.70
20911;DHT22;10615;42.702;23.314;2023-03-31T06:03:12;12.20;75.70
20911;DHT22;10615;42.702;23.314;2023-03-31T06:04:13;12.20;75.80
20911;DHT22;10615;42.702;23.314;2023-03-31T06:05:14;12.20;76.10
20911;DHT22;10615;42.702;23.314;2023-03-31T06:06:15;12.20;76.30
20911;DHT22;10615;42.702;23.314;2023-03-31T06:07:16;12.20;76.30
20911;DHT22;10615;42.702;23.314;2023-03-31T06:08:17;12.10;76.40
20911;DHT22;10615;42.702;23.314;2023-03-31T06:09:17;12.10;76.50
20911;DHT22;10615;42.702;23.314;2023-03-31T06:10:18;12.10;76.60
20911;DHT22;10615;42.702;23.314;2023-03-31T06:11:21;12.10;76.70
20911;DHT22;10615;42.702;23.314;2023-03-31T06:12:22;12.10;76.80
20911;DHT22;10615;42.702;23.314;2023-03-31T06:13:22;12.20;76.90
20911;DHT22;10615;42.702;23.314;2023-03-31T06:14:23;12.20;76.70
20911;DHT22;10615;42.702;23.314;2023-03-31T06:15:24;12.20;76.70
20911;DHT22;10615;42.702;23.314;2023-03-31T06:16:25;12.10;76.60
20911;DHT22;10615;42.702;23.314;2023-03-31T06:17:27;12.10;76.60
20911;DHT22;10615;42.702;23.314;2023-03-31T06:18:29;12.10;76.80
20911;DHT22;10615;42.702;23.314;2023-03-31T06:19:30;12.10;76.90
20911;DHT22;10615;42.702;23.314;2023-03-31T06:20:31;12.20;76.90
20911;DHT22;10615;42.702;23.314;2023-03-31T06:21:32;12.20;76.80
20911;DHT22;10615;42.702;23.314;2023-03-31T06:22:33;12.20;77.30
20911;DHT22;10615;42.702;23.314;2023-03-31T06:23:34;12.30;76.40
20911;DHT22;10615;42.702;23.314;2023-03-31T06:24:34;12.30;76.40
20911;DHT22;10615;42.702;23.314;2023-03-31T06:25:37;12.30;76.30
20911;DHT22;10615;42.702;23.314;2023-03-31T06:26:37;12.40;76.30
20911;DHT22;10615;42.702;23.314;2023-03-31T06:27:38;12.50;76.50
20911;DHT22;10615;42.702;23.314;2023-03-31T06:28:39;12.60;76.50
20911;DHT22;10615;42.702;23.314;2023-03-31T06:29:39;12.80;76.20
20911;DHT22;10615;42.702;23.314;2023-03-31T06:30:40;13.00;76.00
20911;DHT22;10615;42.702;23.314;2023-03-31T06:31:41;13.10;75.40
20911;DHT22;10615;42.702;23.314;2023-03-31T06:32:42;13.20;74.70
20911;DHT22;10615;42.702;23.314;2023-03-31T06:33:43;13.40;74.10
20911;DHT22;10615;42.702;23.314;2023-03-31T06:34:44;13.50;73.40
20911;DHT22;10615;42.702;23.314;2023-03-31T06:35:44;13.70;73.00
20911;DHT22;10615;42.702;23.314;2023-03-31T06:36:45;13.80;72.40
20911;DHT22;10615;42.702;23.314;2023-03-31T06:37:45;13.90;71.80
20911;DHT22;10615;42.702;23.314;2023-03-31T06:38:46;14.00;71.30
20911;DHT22;10615;42.702;23.314;2023-03-31T06:39:47;14.10;70.50
20911;DHT22;10615;42.702;23.314;2023-03-31T06:40:48;14.20;69.50
20911;DHT22;10615;42.702;23.314;2023-03-31T06:41:49;14.40;68.60
20911;DHT22;10615;42.702;23.314;2023-03-31T06:42:50;14.50;67.70
20911;DHT22;10615;42.702;23.314;2023-03-31T06:43:50;14.70;66.80
20911;DHT22;10615;42.702;23.314;2023-03-31T06:44:51;14.80;65.30
20911;DHT22;10615;42.702;23.314;2023-03-31T06:45:52;15.00;64.00
20911;DHT22;10615;42.702;23.314;2023-03-31T06:46:53;15.30;63.00
20911;DHT22;10615;42.702;23.314;2023-03-31T06:47:54;15.40;62.10
20911;DHT22;10615;42.702;23.314;2023-03-31T06:48:55;15.60;61.30
20911;DHT22;10615;42.702;23.314;2023-03-31T06:49:55;15.70;60.40
20911;DHT22;10615;42.702;23.314;2023-03-31T06:50:59;15.70;59.60
20911;DHT22;10615;42.702;23.314;2023-03-31T06:52:00;15.80;59.00
20911;DHT22;10615;42.702;23.314;2023-03-31T06:53:01;15.80;58.60
20911;DHT22;10615;42.702;23.314;2023-03-31T06:54:02;15.70;58.30
20911;DHT22;10615;42.702;23.314;2023-03-31T06:55:03;15.70;57.90
20911;DHT22;10615;42.702;23.314;2023-03-31T06:56:04;15.70;57.80
20911;DHT22;10615;42.702;23.314;2023-03-31T06:57:05;15.60;57.50
20911;DHT22;10615;42.702;23.314;2023-03-31T06:58:06;15.60;58.10
20911;DHT22;10615;42.702;23.314;2023-03-31T06:59:07;15.50;57.30
20911;DHT22;10615;42.702;23.314;2023-03-31T07:00:08;15.40;57.40
20911;DHT22;10615;42.702;23.314;2023-03-31T07:01:09;15.30;57.40
20911;DHT22;10615;42.702;23.314;2023-03-31T07:02:10;15.30;57.40
20911;DHT22;10615;42.702;23.314;2023-03-31T07:03:12;15.30;57.40
20911;DHT22;10615;42.702;23.314;2023-03-31T07:04:12;15.30;57.50
20911;DHT22;10615;42.702;23.314;2023-03-31T07:05:13;15.30;57.50
20911;DHT22;10615;42.702;23.314;2023-03-31T07:06:14;15.30;58.10
20911;DHT22;10615;42.702;23.314;2023-03-31T07:07:14;15.30;57.30
20911;DHT22;10615;42.702;23.314;2023-03-31T07:08:16;15.30;57.30
20911;DHT22;10615;42.702;23.314;2023-03-31T07:09:17;15.30;57.20
20911;DHT22;10615;42.702;23.314;2023-03-31T07:10:18;15.30;57.20
20911;DHT22;10615;42.702;23.314;2023-03-31T07:11:19;15.30;57.20
20911;DHT22;10615;42.702;23.314;2023-03-31T07:12:20;15.50;57.50
20911;DHT22;10615;42.702;23.314;2023-03-31T07:13:21;15.70;57.60
20911;DHT22;10615;42.702;23.314;2023-03-31T07:14:21;15.90;57.40
20911;DHT22;10615;42.702;23.314;2023-03-31T07:15:22;16.10;57.00
20911;DHT22;10615;42.702;23.314;2023-03-31T07:16:24;16.30;56.40
20911;DHT22;10615;42.702;23.314;2023-03-31T07:17:24;16.40;55.80
20911;DHT22;10615;42.702;23.314;2023-03-31T07:18:25;16.60;55.70
20911;DHT22;10615;42.702;23.314;2023-03-31T07:19:31;16.80;55.20
20911;DHT22;10615;42.702;23.314;2023-03-31T07:20:32;17.10;54.80
20911;DHT22;10615;42.702;23.314;2023-03-31T07:21:33;17.20;54.40
20911;DHT22;10615;42.702;23.314;2023-03-31T07:22:33;17.40;54.20
20911;DHT22;10615;42.702;23.314;2023-03-31T07:23:34;17.70;54.00
20911;DHT22;10615;42.702;23.314;2023-03-31T07:24:35;17.80;53.40